Time;durP1;ratioP1;P1;durP2;ratioP2;P2;SDS_P1;SDS_P2;PMS_P1;PMS_P2;Temp;Humidity;BMP_temperature;BMP_pressure;BME280_temperature;BME280_humidity;BME280_pressure;Samples;Min_cycle;Max_cycle;Signal;HPM_P1;HPM_P2
2023/11/25 00:02:22;;;;;;;11.48;3.90;;;3.60;99.90;;;;;;5030363;28;20482;-63
2023/11/25 00:04:49;;;;;;;12.90;3.40;;;3.60;99.90;;;;;;5025615;28;20920;-62
2023/11/25 00:07:14;;;;;;;12.73;3.65;;;3.60;99.90;;;;;;5026295;28;20029;-63
2023/11/25 00:09:40;;;;;;;13.25;3.40;;;3.50;99.90;;;;;;5027881;28;20084;-61
2023/11/25 00:12:06;;;;;;;17.73;3.70;;;3.50;99.90;;;;;;5032912;28;20025;-60
2023/11/25 00:14:31;;;;;;;11.00;3.60;;;3.50;99.90;;;;;;5031104;28;20037;-61
2023/11/25 00:16:57;;;;;;;8.77;3.58;;;3.50;99.90;;;;;;5024815;28;20108;-61
2023/11/25 00:19:22;;;;;;;19.08;3.65;;;3.50;99.90;;;;;;5028030;28;20148;-60
2023/11/25 00:21:48;;;;;;;14.63;3.15;;;3.50;99.90;;;;;;5027231;28;20435;-59
2023/11/25 00:24:13;;;;;;;15.40;3.30;;;3.50;99.90;;;;;;5026838;28;20026;-64
2023/11/25 00:26:39;;;;;;;9.65;2.35;;;3.50;99.90;;;;;;5025941;28;20349;-61
2023/11/25 00:29:05;;;;;;;12.45;2.50;;;3.50;99.90;;;;;;5023260;28;20061;-62
2023/11/25 00:31:31;;;;;;;8.60;2.13;;;3.50;99.90;;;;;;5028347;28;20491;-61
2023/11/25 00:33:56;;;;;;;6.53;2.00;;;3.50;99.90;;;;;;5024992;28;20051;-60
2023/11/25 00:36:22;;;;;;;10.10;1.98;;;3.50;99.90;;;;;;5026410;28;20029;-62
2023/11/25 00:38:47;;;;;;;16.35;2.80;;;3.50;99.90;;;;;;5027925;28;20464;-61
2023/11/25 00:41:13;;;;;;;7.28;2.58;;;3.50;99.90;;;;;;5028079;28;20172;-61
2023/11/25 00:43:38;;;;;;;12.73;2.35;;;3.50;99.90;;;;;;5024565;28;20029;-60
2023/11/25 00:46:04;;;;;;;22.35;2.92;;;3.50;99.90;;;;;;5023068;28;20104;-62
2023/11/25 00:48:35;;;;;;;11.60;2.17;;;3.50;99.90;;;;;;5028918;28;20471;-62
2023/11/25 00:51:01;;;;;;;12.60;2.42;;;3.50;99.90;;;;;;5032527;28;20040;-62
2023/11/25 00:53:26;;;;;;;19.92;2.25;;;3.50;99.90;;;;;;5029625;28;20026;-60
2023/11/25 00:55:52;;;;;;;15.13;2.47;;;3.50;99.90;;;;;;5027154;28;20530;-61
2023/11/25 00:58:18;;;;;;;14.82;2.65;;;3.50;99.90;;;;;;5027832;28;20034;-60
2023/11/25 01:00:44;;;;;;;10.85;2.00;;;3.50;99.90;;;;;;5027552;28;20100;-60
2023/11/25 01:03:09;;;;;;;11.82;1.75;;;3.50;99.90;;;;;;5031807;28;20105;-61
2023/11/25 01:05:35;;;;;;;13.27;2.10;;;3.50;99.90;;;;;;5029580;28;20033;-60
2023/11/25 01:08:01;;;;;;;16.48;2.33;;;3.50;99.90;;;;;;5025533;28;20071;-61
2023/11/25 01:10:26;;;;;;;15.88;1.63;;;3.50;99.90;;;;;;5030120;28;20499;-60
2023/11/25 01:12:52;;;;;;;9.35;1.77;;;3.50;99.90;;;;;;5028812;28;20083;-62
2023/11/25 01:15:19;;;;;;;12.02;1.70;;;3.50;99.90;;;;;;5025219;28;20026;-60
2023/11/25 01:17:45;;;;;;;10.00;3.35;;;3.50;99.90;;;;;;5025208;28;20022;-61
2023/11/25 01:20:13;;;;;;;12.32;1.67;;;3.50;99.90;;;;;;5026854;28;20398;-58
2023/11/25 01:22:39;;;;;;;17.48;2.10;;;3.50;99.90;;;;;;5031216;28;20538;-61
2023/11/25 01:25:06;;;;;;;11.70;2.05;;;3.50;99.90;;;;;;5029581;28;20036;-61
2023/11/25 01:27:33;;;;;;;9.95;1.60;;;3.50;99.90;;;;;;5025872;28;20033;-63
2023/11/25 01:29:59;;;;;;;16.88;2.53;;;3.50;99.90;;;;;;5026183;28;20029;-62
2023/11/25 01:32:25;;;;;;;13.32;2.50;;;3.40;99.90;;;;;;5026434;28;20021;-61
2023/11/25 01:34:50;;;;;;;29.08;2.67;;;3.50;99.90;;;;;;5023757;28;20063;-61
2023/11/25 01:37:17;;;;;;;22.67;2.25;;;3.40;99.90;;;;;;5024042;28;20105;-62
2023/11/25 01:39:43;;;;;;;11.23;2.75;;;3.50;99.90;;;;;;5024581;28;20025;-62
2023/11/25 01:42:08;;;;;;;22.20;3.20;;;3.50;99.90;;;;;;5025515;28;20029;-62
2023/11/25 01:44:34;;;;;;;12.50;1.95;;;3.50;99.90;;;;;;5031910;28;20032;-62
2023/11/25 01:47:00;;;;;;;18.15;2.60;;;3.50;99.90;;;;;;5025047;28;20068;-61
2023/11/25 01:49:26;;;;;;;17.05;4.25;;;3.50;99.90;;;;;;5024771;28;20076;-61
2023/11/25 01:51:52;;;;;;;16.98;3.00;;;3.50;99.90;;;;;;5024074;28;20025;-61
2023/11/25 01:54:19;;;;;;;9.18;3.33;;;3.50;99.90;;;;;;5027855;28;20049;-61
2023/11/25 01:56:53;;;;;;;13.23;2.92;;;3.60;99.90;;;;;;5024347;28;20034;-62
2023/11/25 01:59:20;;;;;;;16.98;3.03;;;3.60;99.90;;;;;;5028104;28;20029;-62
2023/11/25 02:01:46;;;;;;;18.05;3.30;;;3.60;99.90;;;;;;5026684;28;20061;-59
2023/11/25 02:04:13;;;;;;;9.60;2.75;;;3.60;99.90;;;;;;5021488;28;20037;-59
2023/11/25 02:06:38;;;;;;;13.45;3.10;;;3.50;99.90;;;;;;5022162;28;20029;-60
2023/11/25 02:09:05;;;;;;;24.05;3.70;;;3.50;99.90;;;;;;5027737;28;20502;-59
2023/11/25 02:11:31;;;;;;;12.48;2.55;;;3.50;99.90;;;;;;5021911;28;20041;-59
2023/11/25 02:13:56;;;;;;;8.20;2.35;;;3.50;99.90;;;;;;5030248;28;20151;-63
2023/11/25 02:16:22;;;;;;;23.05;3.35;;;3.40;99.90;;;;;;5020888;28;20117;-59
2023/11/25 02:18:47;;;;;;;22.50;2.88;;;3.40;99.90;;;;;;5032797;28;20499;-63
2023/11/25 02:21:13;;;;;;;23.35;3.03;;;3.40;99.90;;;;;;5024372;28;20075;-60
2023/11/25 02:23:39;;;;;;;12.15;2.38;;;3.40;99.90;;;;;;5022177;28;20068;-59
2023/11/25 02:26:05;;;;;;;18.40;2.53;;;3.40;99.90;;;;;;5028053;28;20458;-61
2023/11/25 02:28:31;;;;;;;10.95;2.25;;;3.40;99.90;;;;;;5028035;28;20060;-60
2023/11/25 02:30:56;;;;;;;25.48;3.47;;;3.30;99.90;;;;;;5024431;28;20109;-59
2023/11/25 02:33:22;;;;;;;14.75;2.33;;;3.40;99.90;;;;;;5024808;28;20049;-60
2023/11/25 02:35:48;;;;;;;15.00;2.80;;;3.30;99.90;;;;;;5024637;28;20377;-60
2023/11/25 02:38:14;;;;;;;12.25;3.22;;;3.30;99.90;;;;;;5023170;28;20033;-62
2023/11/25 02:40:43;;;;;;;33.35;2.65;;;3.30;99.90;;;;;;5024567;28;20038;-59
2023/11/25 02:43:11;;;;;;;14.20;2.50;;;3.20;99.90;;;;;;5028730;28;20284;-60
2023/11/25 02:45:37;;;;;;;21.42;2.75;;;3.20;99.90;;;;;;5027664;28;20029;-61
2023/11/25 02:48:04;;;;;;;15.55;2.92;;;3.20;99.90;;;;;;5027421;28;20033;-61
2023/11/25 02:50:30;;;;;;;26.83;2.85;;;3.20;99.90;;;;;;5026846;28;20041;-60
2023/11/25 02:52:56;;;;;;;28.38;5.47;;;3.20;99.90;;;;;;5026124;28;20038;-61
2023/11/25 02:55:22;;;;;;;16.58;2.60;;;3.20;99.90;;;;;;5028519;28;20035;-62
2023/11/25 02:57:48;;;;;;;23.80;2.72;;;3.20;99.90;;;;;;5021576;28;20060;-58
2023/11/25 03:00:36;;;;;;;15.77;2.97;;;3.20;99.90;;;;;;5021805;28;20022;-61
2023/11/25 03:03:17;;;;;;;20.85;2.97;;;3.30;99.90;;;;;;5026622;28;20602;-58
2023/11/25 03:05:46;;;;;;;15.57;2.78;;;3.30;99.90;;;;;;5027374;28;20037;-60
2023/11/25 03:08:12;;;;;;;14.48;2.40;;;3.20;99.90;;;;;;5021218;28;21532;-61
2023/11/25 03:10:41;;;;;;;24.90;5.60;;;3.30;99.90;;;;;;5026991;28;20060;-60
2023/11/25 03:13:09;;;;;;;27.20;4.30;;;3.30;99.90;;;;;;5024502;28;20395;-62
2023/11/25 03:15:34;;;;;;;24.25;6.15;;;3.30;99.90;;;;;;5027141;28;20109;-60
2023/11/25 03:18:01;;;;;;;15.07;2.33;;;3.30;99.90;;;;;;5023531;28;20169;-61
2023/11/25 03:20:27;;;;;;;11.63;2.45;;;3.30;99.90;;;;;;5027708;28;20036;-60
2023/11/25 03:22:52;;;;;;;15.60;1.77;;;3.30;99.90;;;;;;5025722;28;20422;-60
2023/11/25 03:25:18;;;;;;;22.90;2.50;;;3.30;99.90;;;;;;5024554;28;20027;-59
2023/11/25 03:27:43;;;;;;;19.63;2.45;;;3.20;99.90;;;;;;5025656;28;20472;-59
2023/11/25 03:30:11;;;;;;;19.55;3.67;;;3.30;99.90;;;;;;5028673;28;20030;-59
2023/11/25 03:32:37;;;;;;;24.92;2.83;;;3.20;99.90;;;;;;5023737;28;20029;-66
2023/11/25 03:35:04;;;;;;;19.55;2.85;;;3.30;99.90;;;;;;5025890;28;20087;-61
2023/11/25 03:37:30;;;;;;;22.25;2.72;;;3.20;99.90;;;;;;5027201;28;20040;-60
2023/11/25 03:39:55;;;;;;;21.30;2.30;;;3.20;99.90;;;;;;5020511;28;20034;-61
2023/11/25 03:42:21;;;;;;;21.63;3.47;;;3.20;99.90;;;;;;5025653;28;20061;-60
2023/11/25 03:44:47;;;;;;;21.15;2.35;;;3.30;99.90;;;;;;5022548;28;20033;-62
2023/11/25 03:47:13;;;;;;;22.10;3.15;;;3.20;99.90;;;;;;5022538;28;20125;-61
2023/11/25 03:49:39;;;;;;;15.52;2.22;;;3.30;99.90;;;;;;5031234;28;20057;-59
2023/11/25 03:52:05;;;;;;;16.65;3.40;;;3.30;99.90;;;;;;5031018;28;20068;-61
2023/11/25 03:54:33;;;;;;;19.60;2.25;;;3.30;99.90;;;;;;5033667;28;20091;-61
2023/11/25 03:56:59;;;;;;;18.85;2.53;;;3.30;99.90;;;;;;5027495;28;20512;-60
2023/11/25 03:59:25;;;;;;;20.00;2.97;;;3.30;99.90;;;;;;5029316;28;20641;-61
2023/11/25 04:01:51;;;;;;;16.13;2.20;;;3.30;99.90;;;;;;5029110;28;20025;-60
2023/11/25 04:04:17;;;;;;;14.55;1.88;;;3.30;99.90;;;;;;5030161;28;20071;-62
2023/11/25 04:06:43;;;;;;;18.27;2.75;;;3.30;99.90;;;;;;5028830;28;20033;-61
2023/11/25 04:09:09;;;;;;;21.42;2.45;;;3.30;99.90;;;;;;5029102;28;20440;-60
2023/11/25 04:11:35;;;;;;;19.70;2.45;;;3.30;99.90;;;;;;5029911;28;20491;-61
2023/11/25 04:14:00;;;;;;;20.17;2.35;;;3.30;99.90;;;;;;5033727;28;20044;-60
2023/11/25 04:16:26;;;;;;;11.75;2.40;;;3.40;99.90;;;;;;5030021;28;20108;-60
2023/11/25 04:18:52;;;;;;;16.92;2.05;;;3.40;99.90;;;;;;5028097;28;20100;-61
2023/11/25 04:21:22;;;;;;;19.60;2.55;;;3.40;99.90;;;;;;5034114;28;20475;-60
2023/11/25 04:23:51;;;;;;;19.23;2.30;;;3.50;99.90;;;;;;5029320;28;20041;-61
2023/11/25 04:26:19;;;;;;;25.92;3.20;;;3.50;99.90;;;;;;5026931;28;20034;-60
2023/11/25 04:28:45;;;;;;;17.52;2.47;;;3.50;99.90;;;;;;5026719;28;20411;-61
2023/11/25 04:31:11;;;;;;;26.92;3.58;;;3.50;99.90;;;;;;5025453;28;20044;-62
2023/11/25 04:33:36;;;;;;;23.38;2.45;;;3.50;99.90;;;;;;5030270;28;20099;-59
2023/11/25 04:36:02;;;;;;;26.88;3.08;;;3.60;99.90;;;;;;5033154;28;20103;-59
2023/11/25 04:38:28;;;;;;;13.90;3.67;;;3.60;99.90;;;;;;5027645;28;20110;-60
2023/11/25 04:40:54;;;;;;;23.15;2.30;;;3.60;99.90;;;;;;5027797;28;20030;-61
2023/11/25 04:43:20;;;;;;;22.65;2.58;;;3.60;99.90;;;;;;5028249;28;20380;-60
2023/11/25 04:45:45;;;;;;;18.10;2.80;;;3.60;99.90;;;;;;5029463;28;20471;-60
2023/11/25 04:48:11;;;;;;;26.02;2.63;;;3.60;99.90;;;;;;5026992;28;20032;-60
2023/11/25 04:50:36;;;;;;;14.48;2.53;;;3.60;99.90;;;;;;5029244;28;20612;-59
2023/11/25 04:53:02;;;;;;;11.73;2.15;;;3.60;99.90;;;;;;5027615;28;20038;-57
2023/11/25 04:55:28;;;;;;;19.10;3.38;;;3.70;99.90;;;;;;5030171;28;20033;-61
2023/11/25 04:57:55;;;;;;;20.63;2.20;;;3.70;99.90;;;;;;5025506;28;20029;-63
2023/11/25 05:00:21;;;;;;;19.40;2.22;;;3.60;99.90;;;;;;5024433;28;20021;-62
2023/11/25 05:02:47;;;;;;;17.77;2.28;;;3.60;99.90;;;;;;5025724;28;20018;-60
2023/11/25 05:05:13;;;;;;;19.60;2.67;;;3.70;99.90;;;;;;5028583;28;20064;-62
2023/11/25 05:07:39;;;;;;;27.85;2.45;;;3.60;99.90;;;;;;5027132;28;20064;-60
2023/11/25 05:10:06;;;;;;;22.13;2.83;;;3.70;99.90;;;;;;5026333;28;20104;-60
2023/11/25 05:12:32;;;;;;;22.85;2.72;;;3.60;99.90;;;;;;5031365;28;20117;-63
2023/11/25 05:14:57;;;;;;;22.17;2.15;;;3.60;99.90;;;;;;5030637;28;20545;-62
2023/11/25 05:17:25;;;;;;;19.70;3.35;;;3.60;99.90;;;;;;5025050;28;20056;-62
2023/11/25 05:19:50;;;;;;;25.40;2.95;;;3.70;99.90;;;;;;5026241;28;20060;-62
2023/11/25 05:22:16;;;;;;;32.83;3.47;;;3.60;99.90;;;;;;5031226;28;20333;-60
2023/11/25 05:24:41;;;;;;;11.40;1.60;;;3.60;99.90;;;;;;5023593;28;20503;-62
2023/11/25 05:27:07;;;;;;;16.98;2.58;;;3.70;99.90;;;;;;5029249;28;20036;-61
2023/11/25 05:29:32;;;;;;;26.77;2.95;;;3.70;99.90;;;;;;5027233;28;20025;-62
2023/11/25 05:31:58;;;;;;;19.38;2.60;;;3.70;99.90;;;;;;5025569;28;20026;-62
2023/11/25 05:34:24;;;;;;;21.70;3.75;;;3.70;99.90;;;;;;5029311;28;20037;-61
2023/11/25 05:36:50;;;;;;;21.83;2.25;;;3.70;99.90;;;;;;5029738;28;20482;-61
2023/11/25 05:39:20;;;;;;;13.63;2.25;;;3.80;99.90;;;;;;5031686;28;20025;-59
2023/11/25 05:41:51;;;;;;;18.10;2.03;;;3.80;99.90;;;;;;5025413;28;20530;-62
2023/11/25 05:44:18;;;;;;;17.25;2.42;;;3.80;99.90;;;;;;5026012;28;20079;-62
2023/11/25 05:46:45;;;;;;;13.88;2.70;;;3.80;99.90;;;;;;5026362;28;20025;-62
2023/11/25 05:49:11;;;;;;;20.83;2.42;;;3.90;99.90;;;;;;5027181;28;20529;-60
2023/11/25 05:51:44;;;;;;;16.98;2.40;;;3.90;99.90;;;;;;5028413;28;20026;-59
2023/11/25 05:54:13;;;;;;;20.98;2.60;;;3.90;99.90;;;;;;5026445;28;20029;-61
2023/11/25 05:56:40;;;;;;;17.33;2.50;;;3.90;99.90;;;;;;5025137;28;20025;-62
2023/11/25 05:59:07;;;;;;;22.45;2.17;;;4.00;99.90;;;;;;5028980;28;20032;-62
2023/11/25 06:01:34;;;;;;;22.23;3.97;;;4.00;99.90;;;;;;5029112;28;20018;-62
2023/11/25 06:04:00;;;;;;;19.98;3.08;;;4.00;99.90;;;;;;5024283;28;20491;-61
2023/11/25 06:06:25;;;;;;;9.38;1.80;;;4.00;99.90;;;;;;5025216;28;20043;-62
2023/11/25 06:08:51;;;;;;;16.45;3.13;;;4.00;99.90;;;;;;5026490;28;20026;-61
2023/11/25 06:11:34;;;;;;;11.07;2.28;;;4.00;99.90;;;;;;5030360;28;20034;-62
2023/11/25 06:13:59;;;;;;;23.67;2.20;;;4.10;99.90;;;;;;5029077;28;20379;-62
2023/11/25 06:16:25;;;;;;;21.83;2.67;;;4.10;99.90;;;;;;5026329;28;20025;-62
2023/11/25 06:18:51;;;;;;;26.20;3.08;;;4.10;99.90;;;;;;5026741;28;20063;-61
2023/11/25 06:21:18;;;;;;;18.90;2.80;;;4.10;99.90;;;;;;5025215;28;20057;-62
2023/11/25 06:23:43;;;;;;;21.20;2.30;;;4.20;99.90;;;;;;5028963;28;20104;-60
2023/11/25 06:26:12;;;;;;;17.30;2.25;;;4.20;99.90;;;;;;5028186;28;20133;-62
2023/11/25 06:28:41;;;;;;;23.85;3.03;;;4.10;99.90;;;;;;5025605;28;20025;-61
2023/11/25 06:31:08;;;;;;;13.95;2.75;;;4.20;99.90;;;;;;5024822;28;20025;-61
2023/11/25 06:33:34;;;;;;;19.02;2.03;;;4.30;99.90;;;;;;5023463;28;20100;-62
2023/11/25 06:35:59;;;;;;;18.25;2.50;;;4.20;99.90;;;;;;5025975;28;20136;-62
2023/11/25 06:38:26;;;;;;;15.50;2.13;;;4.30;99.90;;;;;;5027510;28;20096;-62
2023/11/25 06:40:51;;;;;;;19.38;2.30;;;4.30;99.90;;;;;;5024114;28;20116;-62
2023/11/25 06:43:17;;;;;;;18.38;2.25;;;4.30;99.90;;;;;;5028748;28;20543;-62
2023/11/25 06:45:44;;;;;;;11.35;1.88;;;4.30;99.90;;;;;;5024248;28;20079;-60
2023/11/25 06:48:10;;;;;;;19.15;2.00;;;4.40;99.90;;;;;;5025134;28;20029;-60
2023/11/25 06:50:37;;;;;;;17.45;2.08;;;4.40;99.90;;;;;;5026634;28;20084;-61
2023/11/25 06:53:03;;;;;;;17.08;2.28;;;4.40;99.90;;;;;;5025241;28;20037;-62
2023/11/25 06:55:29;;;;;;;15.45;2.08;;;4.40;99.90;;;;;;5024971;28;20048;-62
2023/11/25 06:57:55;;;;;;;19.42;1.88;;;4.50;99.90;;;;;;5026468;28;20041;-61
2023/11/25 07:00:22;;;;;;;22.05;3.08;;;4.50;99.90;;;;;;5027282;28;20083;-63
2023/11/25 07:02:48;;;;;;;27.63;2.97;;;4.50;99.90;;;;;;5027302;28;20017;-61
2023/11/25 07:05:13;;;;;;;17.95;2.60;;;4.50;99.90;;;;;;5024362;28;20032;-62
2023/11/25 07:07:39;;;;;;;20.98;2.65;;;4.50;99.90;;;;;;5022006;28;20034;-59
2023/11/25 07:10:09;;;;;;;29.33;2.97;;;4.50;99.90;;;;;;5027378;28;20026;-60
2023/11/25 07:12:38;;;;;;;27.30;3.00;;;4.60;99.90;;;;;;5026289;28;20021;-60
2023/11/25 07:15:05;;;;;;;16.40;2.28;;;4.50;99.90;;;;;;5028311;28;20064;-60
2023/11/25 07:17:31;;;;;;;23.30;3.03;;;4.60;99.90;;;;;;5026111;28;20036;-61
2023/11/25 07:19:57;;;;;;;27.20;2.45;;;4.60;99.90;;;;;;5024246;28;20030;-61
2023/11/25 07:22:22;;;;;;;22.05;2.70;;;4.50;99.90;;;;;;5024355;28;20047;-61
2023/11/25 07:24:48;;;;;;;20.52;2.75;;;4.50;99.90;;;;;;5021742;28;20067;-62
2023/11/25 07:27:18;;;;;;;18.38;2.55;;;4.40;99.90;;;;;;5030709;28;20098;-62
2023/11/25 07:29:46;;;;;;;15.93;1.63;;;4.40;99.90;;;;;;5028741;28;20025;-57
2023/11/25 07:32:12;;;;;;;16.77;2.17;;;4.40;99.90;;;;;;5027282;28;20030;-61
2023/11/25 07:34:38;;;;;;;33.17;3.47;;;4.40;99.90;;;;;;5024803;28;20028;-60
2023/11/25 07:37:05;;;;;;;19.92;2.58;;;4.40;99.90;;;;;;5029955;28;20036;-60
2023/11/25 07:39:33;;;;;;;21.40;2.83;;;4.30;99.90;;;;;;5033198;28;20033;-60
2023/11/25 07:41:59;;;;;;;19.80;2.97;;;4.30;99.90;;;;;;5031426;28;20037;-61
2023/11/25 07:44:27;;;;;;;17.60;2.35;;;4.40;99.90;;;;;;5031266;28;20029;-59
2023/11/25 07:46:53;;;;;;;25.25;4.25;;;4.40;99.90;;;;;;5027883;28;20036;-62
2023/11/25 07:49:18;;;;;;;24.05;3.47;;;4.40;99.90;;;;;;5028777;28;20033;-61
2023/11/25 07:51:48;;;;;;;23.90;3.38;;;4.30;99.90;;;;;;5029084;28;20025;-61
2023/11/25 07:54:14;;;;;;;23.00;3.72;;;4.40;99.90;;;;;;5027505;28;20049;-62
2023/11/25 07:56:39;;;;;;;13.52;2.53;;;4.30;99.90;;;;;;5030999;28;20107;-59
2023/11/25 07:59:05;;;;;;;34.47;5.30;;;4.30;99.90;;;;;;5028054;28;20453;-64
2023/11/25 08:01:31;;;;;;;13.90;3.08;;;4.30;99.90;;;;;;5031058;28;20468;-61
2023/11/25 08:03:57;;;;;;;36.10;3.13;;;4.30;99.90;;;;;;5027945;28;20026;-61
2023/11/25 08:06:25;;;;;;;27.35;2.95;;;4.40;99.90;;;;;;5030887;28;20033;-62
2023/11/25 08:08:51;;;;;;;20.42;2.47;;;4.40;99.90;;;;;;5029374;28;20030;-62
2023/11/25 08:11:27;;;;;;;24.75;2.95;;;4.40;99.90;;;;;;5030438;28;20036;-62
2023/11/25 08:13:53;;;;;;;24.98;2.92;;;4.50;99.90;;;;;;5027064;28;20029;-62
2023/11/25 08:16:19;;;;;;;15.65;2.72;;;4.50;99.90;;;;;;5029944;28;20738;-62
2023/11/25 08:18:45;;;;;;;20.23;2.88;;;4.60;99.90;;;;;;5027803;28;20108;-59
2023/11/25 08:21:13;;;;;;;20.38;2.55;;;4.60;99.90;;;;;;5025508;28;20021;-60
2023/11/25 08:23:39;;;;;;;20.05;2.63;;;4.60;99.90;;;;;;5030895;28;20040;-59
2023/11/25 08:26:05;;;;;;;28.75;3.72;;;4.70;99.90;;;;;;5031959;28;20030;-62
2023/11/25 08:28:30;;;;;;;26.90;3.90;;;4.70;99.90;;;;;;5031678;28;20050;-61
2023/11/25 08:30:56;;;;;;;12.65;2.50;;;4.70;99.90;;;;;;5031715;28;20532;-61
2023/11/25 08:33:21;;;;;;;20.60;2.90;;;4.70;99.90;;;;;;5031101;28;20053;-59
2023/11/25 08:35:47;;;;;;;22.15;3.67;;;4.80;99.90;;;;;;5032163;28;20100;-61
2023/11/25 08:38:13;;;;;;;9.57;2.50;;;4.70;99.90;;;;;;5025827;28;20033;-60
2023/11/25 08:40:41;;;;;;;21.70;2.97;;;4.70;99.90;;;;;;5027722;28;20030;-61
2023/11/25 08:43:11;;;;;;;20.98;3.10;;;4.70;99.90;;;;;;5026908;28;20117;-61
2023/11/25 08:45:37;;;;;;;17.35;2.40;;;4.70;99.90;;;;;;5028273;28;20108;-61
2023/11/25 08:48:05;;;;;;;19.10;3.08;;;4.70;99.90;;;;;;5026619;28;20451;-61
2023/11/25 08:50:31;;;;;;;10.63;2.33;;;4.70;99.90;;;;;;5026301;28;21007;-59
2023/11/25 08:52:57;;;;;;;27.52;2.95;;;4.70;99.90;;;;;;5028933;28;20034;-60
2023/11/25 08:55:22;;;;;;;22.77;2.15;;;4.70;99.90;;;;;;5028412;28;20030;-60
2023/11/25 08:57:51;;;;;;;13.45;2.38;;;4.70;99.90;;;;;;5027509;28;20025;-60
2023/11/25 09:00:19;;;;;;;15.55;2.80;;;4.70;99.90;;;;;;5026195;28;20472;-60
2023/11/25 09:02:47;;;;;;;25.52;3.75;;;4.70;99.90;;;;;;5027569;28;20148;-59
2023/11/25 09:05:14;;;;;;;20.15;2.78;;;4.70;99.90;;;;;;5027754;28;20029;-60
2023/11/25 09:07:41;;;;;;;14.27;3.13;;;4.80;99.90;;;;;;5025184;28;20037;-59
2023/11/25 09:10:07;;;;;;;15.55;2.83;;;4.80;99.90;;;;;;5023117;28;20156;-60
2023/11/25 09:12:34;;;;;;;25.02;2.83;;;4.80;99.90;;;;;;5027765;28;20056;-60
2023/11/25 09:15:00;;;;;;;25.38;3.35;;;4.80;99.90;;;;;;5027733;28;20079;-58
2023/11/25 09:17:25;;;;;;;14.98;2.25;;;4.90;99.90;;;;;;5029251;28;20028;-61
2023/11/25 09:19:51;;;;;;;11.45;2.55;;;4.90;99.90;;;;;;5027626;28;20021;-58
2023/11/25 09:22:17;;;;;;;14.30;2.28;;;4.90;99.90;;;;;;5028642;28;20029;-58
2023/11/25 09:24:44;;;;;;;21.77;2.35;;;5.00;99.90;;;;;;5028239;28;20037;-60
2023/11/25 09:27:13;;;;;;;8.80;1.90;;;5.00;99.90;;;;;;5025327;28;20026;-55
2023/11/25 09:29:41;;;;;;;14.82;3.08;;;5.20;99.90;;;;;;5025376;28;20075;-54
2023/11/25 09:32:07;;;;;;;13.80;3.00;;;5.30;99.90;;;;;;5021862;28;20018;-55
2023/11/25 09:34:33;;;;;;;11.95;3.50;;;5.40;99.90;;;;;;5027033;28;20108;-55
2023/11/25 09:36:59;;;;;;;24.90;3.30;;;5.50;99.90;;;;;;5020429;28;20025;-55
2023/11/25 09:39:25;;;;;;;14.32;2.65;;;5.50;99.90;;;;;;5025241;28;20029;-55
2023/11/25 09:41:50;;;;;;;20.83;3.28;;;5.50;99.90;;;;;;5025823;28;20033;-56
2023/11/25 09:44:18;;;;;;;20.55;2.30;;;5.50;99.90;;;;;;5021415;28;20025;-56
2023/11/25 09:46:46;;;;;;;16.20;2.38;;;5.40;99.90;;;;;;5021564;28;20036;-54
2023/11/25 09:49:12;;;;;;;15.00;2.58;;;5.40;99.90;;;;;;5021800;28;20491;-57
2023/11/25 09:51:39;;;;;;;17.58;1.98;;;5.40;99.90;;;;;;5024344;28;20040;-55
2023/11/25 09:54:10;;;;;;;18.33;3.33;;;5.50;99.90;;;;;;5023600;28;20033;-54
2023/11/25 09:56:36;;;;;;;7.97;2.38;;;5.50;99.90;;;;;;5024053;28;20029;-54
2023/11/25 09:59:04;;;;;;;18.00;3.08;;;5.60;99.90;;;;;;5025103;28;20032;-57
2023/11/25 10:01:30;;;;;;;14.93;2.72;;;5.80;99.90;;;;;;5024731;28;20447;-56
2023/11/25 10:03:57;;;;;;;16.98;2.95;;;5.80;99.90;;;;;;5021919;28;20026;-55
2023/11/25 10:06:22;;;;;;;14.57;2.85;;;5.90;99.90;;;;;;5023459;28;20026;-57
2023/11/25 10:08:48;;;;;;;19.05;3.67;;;5.90;99.90;;;;;;5024142;28;20400;-58
2023/11/25 10:11:17;;;;;;;18.33;2.92;;;5.90;99.90;;;;;;5032276;28;20052;-58
2023/11/25 10:13:43;;;;;;;16.60;3.80;;;5.80;99.90;;;;;;5026974;28;20025;-57
2023/11/25 10:16:09;;;;;;;12.90;3.40;;;5.90;99.90;;;;;;5019850;28;20087;-56
2023/11/25 10:18:38;;;;;;;14.25;3.17;;;5.90;99.90;;;;;;5026033;28;20033;-58
2023/11/25 10:21:08;;;;;;;16.35;3.10;;;5.90;99.90;;;;;;5024563;28;20029;-55
2023/11/25 10:23:35;;;;;;;19.90;3.38;;;6.00;99.90;;;;;;5029403;28;20623;-54
2023/11/25 10:26:05;;;;;;;17.08;2.25;;;6.00;99.90;;;;;;5027271;28;20416;-55
2023/11/25 10:28:36;;;;;;;10.30;2.47;;;6.30;99.90;;;;;;5025309;28;20102;-55
2023/11/25 10:31:05;;;;;;;15.85;3.05;;;6.30;99.90;;;;;;5026817;28;20022;-55
2023/11/25 10:33:31;;;;;;;14.43;2.78;;;6.30;99.90;;;;;;5026215;28;20033;-57
2023/11/25 10:35:58;;;;;;;8.55;2.47;;;6.30;99.90;;;;;;5027109;28;20033;-57
2023/11/25 10:38:27;;;;;;;18.92;2.60;;;6.40;99.90;;;;;;5025769;28;20163;-55
2023/11/25 10:41:00;;;;;;;24.35;3.50;;;6.30;99.90;;;;;;5036158;28;20025;-56
2023/11/25 10:43:27;;;;;;;11.95;3.80;;;6.30;99.90;;;;;;5027171;28;20029;-56
2023/11/25 10:46:10;;;;;;;20.55;2.78;;;6.30;99.90;;;;;;5028976;28;20033;-57
2023/11/25 10:48:39;;;;;;;11.65;2.17;;;6.30;99.90;;;;;;5024713;28;20114;-56
2023/11/25 10:51:05;;;;;;;12.98;2.45;;;6.30;99.90;;;;;;5025017;28;20037;-56
2023/11/25 10:53:32;;;;;;;8.35;1.98;;;6.40;99.90;;;;;;5024338;28;20025;-55
2023/11/25 10:55:59;;;;;;;13.05;2.70;;;6.60;99.90;;;;;;5027982;28;20017;-57
2023/11/25 10:58:26;;;;;;;11.57;2.00;;;6.70;99.90;;;;;;5033045;28;20026;-58
2023/11/25 11:00:54;;;;;;;12.75;2.80;;;6.80;99.90;;;;;;5026763;28;20667;-56
2023/11/25 11:03:41;;;;;;;12.23;1.80;;;7.00;99.90;;;;;;5023842;28;20053;-58
2023/11/25 11:06:11;;;;;;;7.85;1.30;;;7.10;99.90;;;;;;5027181;28;20021;-57
2023/11/25 11:08:37;;;;;;;8.40;1.80;;;7.00;99.90;;;;;;5026549;28;20030;-58
2023/11/25 11:11:35;;;;;;;9.45;1.60;;;7.00;99.90;;;;;;5028367;28;20029;-59
2023/11/25 11:14:10;;;;;;;9.27;1.95;;;6.90;99.90;;;;;;5023063;28;20098;-58
2023/11/25 11:17:22;;;;;;;8.80;1.48;;;6.90;99.90;;;;;;5030780;28;20041;-56
2023/11/25 11:19:53;;;;;;;8.52;1.73;;;6.80;99.90;;;;;;5014116;28;20037;-58
2023/11/25 11:22:21;;;;;;;17.52;1.15;;;6.80;99.90;;;;;;5028429;28;20029;-58
2023/11/25 11:25:06;;;;;;;16.85;1.48;;;6.80;99.90;;;;;;5028932;28;20060;-57
2023/11/25 11:27:56;;;;;;;6.97;1.30;;;6.80;99.90;;;;;;5025297;28;20025;-57
2023/11/25 11:30:53;;;;;;;7.43;1.40;;;6.90;99.90;;;;;;5017559;28;20103;-55
2023/11/25 11:33:20;;;;;;;14.30;1.73;;;6.90;99.90;;;;;;5027544;28;20041;-55
2023/11/25 11:35:48;;;;;;;9.32;1.40;;;7.00;99.90;;;;;;5020929;28;20026;-55
2023/11/25 11:38:25;;;;;;;11.23;1.40;;;6.90;99.90;;;;;;5023648;28;20128;-57
2023/11/25 11:41:23;;;;;;;7.50;2.13;;;7.00;99.90;;;;;;5023191;28;20037;-57
2023/11/25 11:44:05;;;;;;;9.73;1.67;;;7.00;99.90;;;;;;5015099;28;20373;-58
2023/11/25 11:46:32;;;;;;;10.35;1.85;;;7.00;99.90;;;;;;5026316;28;20037;-58
2023/11/25 11:49:01;;;;;;;10.73;1.45;;;7.10;99.90;;;;;;5028521;28;20033;-56
2023/11/25 11:51:28;;;;;;;9.18;1.90;;;7.10;99.90;;;;;;5028946;28;20488;-56
2023/11/25 11:54:19;;;;;;;5.53;1.60;;;7.20;99.90;;;;;;5029590;28;20022;-58
2023/11/25 11:57:13;;;;;;;10.30;1.85;;;7.20;99.90;;;;;;5020187;28;20358;-58
2023/11/25 11:59:58;;;;;;;4.90;2.27;;;7.20;99.90;;;;;;5026180;28;20526;-59
2023/11/25 12:02:24;;;;;;;11.43;1.77;;;7.20;99.90;;;;;;5024882;28;20037;-58
2023/11/25 12:04:50;;;;;;;8.13;1.58;;;7.30;99.90;;;;;;5021747;28;20033;-57
2023/11/25 12:07:15;;;;;;;12.48;1.70;;;7.20;99.90;;;;;;5024911;28;20029;-58
2023/11/25 12:09:41;;;;;;;12.32;1.92;;;7.20;99.90;;;;;;5029281;28;20051;-58
2023/11/25 12:12:06;;;;;;;6.35;2.08;;;7.20;99.90;;;;;;5030464;28;20406;-58
2023/11/25 12:14:32;;;;;;;10.70;1.95;;;7.20;99.90;;;;;;5025887;28;20037;-58
2023/11/25 12:16:57;;;;;;;10.93;2.25;;;7.10;99.90;;;;;;5025087;28;20037;-55
2023/11/25 12:19:24;;;;;;;9.85;2.00;;;7.10;99.90;;;;;;5030696;28;20083;-58
2023/11/25 12:21:50;;;;;;;7.93;2.10;;;6.90;99.90;;;;;;5029119;28;20095;-57
2023/11/25 12:24:17;;;;;;;7.25;2.08;;;6.90;99.90;;;;;;5030318;28;21711;-58
2023/11/25 12:26:49;;;;;;;9.30;1.70;;;6.70;99.90;;;;;;5029658;28;20120;-58
2023/11/25 12:29:15;;;;;;;6.82;1.42;;;6.60;99.90;;;;;;5030648;28;20456;-59
2023/11/25 12:31:41;;;;;;;11.13;1.65;;;6.60;99.90;;;;;;5026780;28;20026;-59
2023/11/25 12:34:07;;;;;;;14.82;2.55;;;6.60;99.90;;;;;;5025047;28;20392;-58
2023/11/25 12:36:33;;;;;;;8.82;1.98;;;6.60;99.90;;;;;;5028322;28;20068;-56
2023/11/25 12:38:58;;;;;;;9.15;2.05;;;6.60;99.90;;;;;;5027783;28;20021;-58
2023/11/25 12:41:24;;;;;;;9.90;2.10;;;6.50;99.90;;;;;;5028234;28;20033;-58
2023/11/25 12:44:11;;;;;;;9.88;1.75;;;6.60;99.90;;;;;;5025277;28;20078;-58
2023/11/25 12:46:37;;;;;;;9.48;2.53;;;6.60;99.90;;;;;;5026681;28;20049;-57
2023/11/25 12:49:23;;;;;;;14.75;2.03;;;6.60;99.90;;;;;;5025127;28;20136;-58
2023/11/25 12:51:50;;;;;;;11.35;1.90;;;6.60;99.90;;;;;;5030345;28;20041;-58